createdAt,value
2023-10-20T00:00:55.885Z,99.01
2023-10-20T00:03:22.879Z,99.40
2023-10-20T00:05:49.866Z,99.20
2023-10-20T00:08:16.842Z,99.56
2023-10-20T00:10:43.802Z,99.08
2023-10-20T00:13:10.732Z,99.55
2023-10-20T00:15:38.325Z,100.00
2023-10-20T00:18:05.778Z,100.00
2023-10-20T00:20:32.889Z,100.00
2023-10-20T00:22:59.849Z,99.76
2023-10-20T00:25:26.795Z,99.65
2023-10-20T00:27:53.666Z,100.00
2023-10-20T00:30:20.741Z,98.74
2023-10-20T00:32:47.691Z,96.93
2023-10-20T00:35:15.144Z,96.34
2023-10-20T00:37:43.200Z,97.11
2023-10-20T00:40:12.828Z,97.17
2023-10-20T00:42:39.848Z,97.87
2023-10-20T00:45:08.386Z,98.66
2023-10-20T00:47:36.379Z,99.16
2023-10-20T00:50:03.691Z,97.93
2023-10-20T00:52:31.002Z,97.30
2023-10-20T00:55:00.293Z,97.39
2023-10-20T00:57:27.464Z,97.85
2023-10-20T00:59:54.546Z,98.06
2023-10-20T01:02:21.723Z,98.46
2023-10-20T01:04:49.189Z,98.27
2023-10-20T01:07:16.474Z,98.14
2023-10-20T01:09:46.472Z,98.58
2023-10-20T01:12:13.371Z,98.53
2023-10-20T01:14:40.546Z,98.54
2023-10-20T01:17:08.448Z,99.01
2023-10-20T01:19:35.355Z,99.32
2023-10-20T01:22:02.270Z,99.14
2023-10-20T01:24:29.381Z,99.84
2023-10-20T01:26:56.571Z,100.00
2023-10-20T01:29:23.553Z,100.00
2023-10-20T01:31:51.345Z,99.97
2023-10-20T01:34:18.473Z,100.00
2023-10-20T01:36:45.494Z,100.00
2023-10-20T01:39:12.394Z,100.00
2023-10-20T01:41:39.952Z,100.00
2023-10-20T01:44:06.969Z,100.00
2023-10-20T01:46:34.137Z,100.00
2023-10-20T01:49:01.092Z,100.00
2023-10-20T01:51:28.267Z,100.00
2023-10-20T01:53:56.046Z,100.00
2023-10-20T01:56:23.835Z,100.00
2023-10-20T01:58:50.856Z,100.00
2023-10-20T02:01:17.857Z,100.00
2023-10-20T02:03:44.907Z,100.00
2023-10-20T02:06:12.166Z,100.00
2023-10-20T02:08:39.126Z,100.00
2023-10-20T02:11:06.190Z,100.00
2023-10-20T02:13:33.225Z,100.00
2023-10-20T02:16:01.008Z,100.00
2023-10-20T02:18:28.510Z,100.00
2023-10-20T02:21:01.071Z,100.00
2023-10-20T02:23:28.745Z,100.00
2023-10-20T02:26:05.067Z,100.00
2023-10-20T02:28:36.168Z,100.00
2023-10-20T02:31:17.119Z,100.00
2023-10-20T02:33:44.642Z,100.00
2023-10-20T02:36:20.245Z,100.00
2023-10-20T02:38:48.621Z,100.00
2023-10-20T02:41:16.363Z,100.00
2023-10-20T02:43:43.270Z,100.00
2023-10-20T02:46:10.434Z,100.00
2023-10-20T02:48:37.422Z,100.00
2023-10-20T02:51:13.060Z,100.00
2023-10-20T02:53:42.105Z,100.00
2023-10-20T02:56:12.176Z,100.00
2023-10-20T02:58:40.022Z,100.00
2023-10-20T03:01:08.364Z,100.00
2023-10-20T03:03:35.675Z,100.00
2023-10-20T03:06:05.073Z,100.00
2023-10-20T03:08:33.015Z,100.00
2023-10-20T03:11:00.405Z,100.00
2023-10-20T03:13:29.204Z,100.00
2023-10-20T03:15:56.115Z,100.00
2023-10-20T03:18:23.087Z,100.00
2023-10-20T03:20:51.041Z,100.00
2023-10-20T03:23:19.035Z,100.00
2023-10-20T03:25:46.113Z,100.00
2023-10-20T03:28:12.980Z,100.00
2023-10-20T03:30:41.665Z,100.00
2023-10-20T03:33:10.635Z,100.00
2023-10-20T03:35:38.151Z,100.00
2023-10-20T03:38:06.228Z,100.00
2023-10-20T03:40:33.194Z,100.00
2023-10-20T03:43:00.134Z,100.00
2023-10-20T03:45:27.071Z,100.00
2023-10-20T03:47:55.140Z,100.00
2023-10-20T03:50:22.086Z,100.00
2023-10-20T03:52:49.815Z,100.00
2023-10-20T03:55:16.906Z,100.00
2023-10-20T03:57:46.084Z,100.00
2023-10-20T04:00:15.335Z,100.00
2023-10-20T04:02:42.589Z,100.00
2023-10-20T04:05:09.861Z,100.00
2023-10-20T04:07:36.792Z,100.00
2023-10-20T04:10:03.828Z,100.00
2023-10-20T04:12:30.823Z,100.00
2023-10-20T04:14:57.795Z,100.00
2023-10-20T04:17:25.039Z,100.00
2023-10-20T04:19:52.058Z,100.00
2023-10-20T04:22:19.018Z,100.00
2023-10-20T04:24:45.950Z,100.00
2023-10-20T04:27:13.436Z,100.00
2023-10-20T04:29:40.426Z,100.00
2023-10-20T04:32:07.479Z,100.00
2023-10-20T04:34:34.441Z,100.00
2023-10-20T04:37:01.496Z,100.00
2023-10-20T04:39:28.416Z,100.00
2023-10-20T04:41:55.399Z,100.00
2023-10-20T04:44:22.534Z,100.00
2023-10-20T04:46:50.896Z,100.00
2023-10-20T04:49:17.648Z,100.00
2023-10-20T04:51:44.478Z,100.00
2023-10-20T04:54:11.280Z,100.00
2023-10-20T04:56:38.203Z,100.00
2023-10-20T04:59:05.190Z,100.00
2023-10-20T05:01:33.713Z,100.00
2023-10-20T05:04:00.782Z,100.00
2023-10-20T05:06:27.770Z,100.00
2023-10-20T05:08:54.818Z,100.00
2023-10-20T05:11:21.703Z,100.00
2023-10-20T05:13:48.546Z,100.00
2023-10-20T05:16:15.448Z,100.00
2023-10-20T05:18:42.502Z,100.00
2023-10-20T05:21:09.968Z,100.00
2023-10-20T05:23:37.605Z,100.00
2023-10-20T05:26:04.987Z,100.00
2023-10-20T05:28:32.085Z,100.00
2023-10-20T05:30:59.194Z,100.00
2023-10-20T05:33:26.204Z,100.00
2023-10-20T05:35:54.142Z,100.00
2023-10-20T05:38:20.993Z,100.00
2023-10-20T05:41:01.485Z,100.00
2023-10-20T05:43:29.038Z,100.00
2023-10-20T05:45:56.056Z,100.00
2023-10-20T05:48:22.932Z,100.00
2023-10-20T05:50:58.801Z,100.00
2023-10-20T05:53:26.466Z,100.00
2023-10-20T05:55:53.976Z,100.00
2023-10-20T05:58:20.815Z,100.00
2023-10-20T06:01:01.782Z,100.00
2023-10-20T06:03:29.751Z,100.00
2023-10-20T06:06:01.023Z,100.00
2023-10-20T06:08:29.456Z,100.00
2023-10-20T06:11:07.013Z,100.00
2023-10-20T06:13:35.817Z,100.00
2023-10-20T06:16:10.508Z,100.00
2023-10-20T06:18:39.864Z,100.00
2023-10-20T06:21:12.398Z,100.00
2023-10-20T06:23:39.210Z,100.00
2023-10-20T06:26:06.243Z,100.00
2023-10-20T06:28:33.563Z,100.00
2023-10-20T06:31:00.403Z,100.00
2023-10-20T06:33:27.846Z,100.00
2023-10-20T06:35:54.869Z,100.00
2023-10-20T06:38:23.515Z,100.00
2023-10-20T06:40:50.493Z,100.00
2023-10-20T06:43:17.896Z,100.00
2023-10-20T06:45:46.021Z,100.00
2023-10-20T06:48:12.935Z,100.00
2023-10-20T06:50:40.128Z,100.00
2023-10-20T06:53:07.115Z,100.00
2023-10-20T06:58:24.230Z,100.00
2023-10-20T07:00:51.043Z,100.00
2023-10-20T07:03:18.022Z,100.00
2023-10-20T07:05:45.737Z,100.00
2023-10-20T07:08:12.740Z,100.00
2023-10-20T07:10:39.624Z,100.00
2023-10-20T07:13:07.146Z,100.00
2023-10-20T07:15:37.180Z,100.00
2023-10-20T07:18:05.138Z,100.00
2023-10-20T07:20:33.043Z,100.00
2023-10-20T07:23:00.877Z,100.00
2023-10-20T07:25:28.664Z,100.00
2023-10-20T07:27:56.224Z,100.00
2023-10-20T07:30:24.358Z,100.00
2023-10-20T07:32:52.057Z,100.00
2023-10-20T07:35:19.512Z,100.00
2023-10-20T07:37:46.547Z,100.00
2023-10-20T07:40:13.788Z,100.00
2023-10-20T07:42:42.049Z,100.00
2023-10-20T07:45:09.723Z,100.00
2023-10-20T07:47:36.723Z,100.00
2023-10-20T07:50:04.263Z,100.00
2023-10-20T07:52:32.408Z,100.00
2023-10-20T07:54:59.262Z,100.00
2023-10-20T07:57:26.130Z,100.00
2023-10-20T07:59:52.989Z,100.00
2023-10-20T08:02:19.844Z,100.00
2023-10-20T08:04:46.980Z,100.00
2023-10-20T08:07:13.994Z,100.00
2023-10-20T08:09:41.045Z,100.00
2023-10-20T08:12:07.918Z,100.00
2023-10-20T08:14:34.803Z,100.00
2023-10-20T08:17:01.813Z,100.00
2023-10-20T08:19:28.631Z,100.00
2023-10-20T08:21:55.586Z,100.00
2023-10-20T08:24:22.543Z,100.00
2023-10-20T08:26:50.006Z,100.00
2023-10-20T08:29:16.885Z,100.00
2023-10-20T08:31:43.799Z,100.00
2023-10-20T08:34:10.721Z,100.00
2023-10-20T08:36:37.639Z,100.00
2023-10-20T08:39:04.796Z,100.00
2023-10-20T08:41:31.652Z,100.00
2023-10-20T08:43:58.737Z,100.00
2023-10-20T08:46:27.036Z,100.00
2023-10-20T08:48:55.029Z,100.00
2023-10-20T08:51:22.828Z,100.00
2023-10-20T08:53:49.677Z,96.22
2023-10-20T08:56:16.684Z,94.88
2023-10-20T08:58:46.764Z,88.93
2023-10-20T09:01:14.846Z,86.03
2023-10-20T09:03:45.196Z,83.88
2023-10-20T09:06:14.444Z,82.38
2023-10-20T09:08:42.677Z,80.99
2023-10-20T09:11:10.525Z,79.29
2023-10-20T09:13:39.260Z,79.73
2023-10-20T09:16:15.556Z,79.76
2023-10-20T09:18:49.713Z,79.41
2023-10-20T09:21:25.614Z,78.86
2023-10-20T09:24:01.947Z,79.73
2023-10-20T09:26:31.991Z,79.69
2023-10-20T09:28:59.567Z,79.62
2023-10-20T09:31:29.244Z,79.26
2023-10-20T09:33:56.519Z,78.92
2023-10-20T09:36:23.676Z,78.32
2023-10-20T09:38:55.235Z,77.79
2023-10-20T09:41:27.118Z,77.99
2023-10-20T09:44:08.541Z,77.59
2023-10-20T09:46:54.237Z,76.86
2023-10-20T09:49:24.394Z,76.79
2023-10-20T09:51:54.324Z,76.66
2023-10-20T09:54:33.753Z,76.67
2023-10-20T09:57:01.949Z,76.24
2023-10-20T09:59:29.448Z,75.21
2023-10-20T10:01:57.742Z,75.04
2023-10-20T10:04:29.527Z,73.79
2023-10-20T10:06:56.917Z,74.23
2023-10-20T10:09:23.829Z,73.08
2023-10-20T10:11:55.852Z,73.01
2023-10-20T10:14:24.388Z,72.33
2023-10-20T10:16:53.011Z,71.21
2023-10-20T10:19:20.747Z,70.76
2023-10-20T10:21:51.099Z,70.29
2023-10-20T10:24:20.737Z,69.08
2023-10-20T10:26:57.730Z,69.46
2023-10-20T10:29:52.810Z,70.16
2023-10-20T10:32:24.289Z,69.00
2023-10-20T10:34:56.604Z,69.15
2023-10-20T10:37:35.713Z,67.34
2023-10-20T10:40:22.883Z,67.20
2023-10-20T10:42:53.739Z,67.41
2023-10-20T10:45:24.733Z,67.24
2023-10-20T10:48:03.721Z,66.81
2023-10-20T10:50:31.203Z,66.70
2023-10-20T10:52:58.063Z,66.85
2023-10-20T10:55:25.080Z,67.73
2023-10-20T10:57:53.225Z,66.38
2023-10-20T11:00:20.878Z,66.16
2023-10-20T11:02:48.536Z,66.60
2023-10-20T11:05:17.179Z,67.19
2023-10-20T11:08:04.733Z,66.91
2023-10-20T11:10:33.799Z,66.76
2023-10-20T11:13:28.699Z,66.38
2023-10-20T11:15:55.591Z,65.99
2023-10-20T11:18:22.685Z,65.58
2023-10-20T11:20:49.985Z,65.88
2023-10-20T11:23:16.892Z,66.18
2023-10-20T11:25:43.938Z,65.33
2023-10-20T11:28:11.145Z,66.08
2023-10-20T11:30:40.018Z,65.85
2023-10-20T11:33:07.433Z,64.86
2023-10-20T11:35:34.726Z,65.03
2023-10-20T11:38:02.213Z,64.39
2023-10-20T11:40:30.271Z,65.12
2023-10-20T11:42:57.483Z,64.86
2023-10-20T11:45:25.114Z,64.76
2023-10-20T11:47:52.548Z,63.74
2023-10-20T11:50:19.982Z,63.07
2023-10-20T11:52:47.152Z,62.28
2023-10-20T11:55:14.545Z,63.35
2023-10-20T11:57:42.092Z,62.61
2023-10-20T12:00:10.305Z,62.73
2023-10-20T12:02:41.142Z,63.43
2023-10-20T12:05:08.994Z,62.99
2023-10-20T12:07:36.477Z,62.75
2023-10-20T12:10:04.049Z,62.93
2023-10-20T12:12:30.989Z,62.52
2023-10-20T12:14:58.041Z,62.50
2023-10-20T12:17:25.020Z,62.45
2023-10-20T12:19:51.985Z,62.34
2023-10-20T12:22:18.856Z,61.73
2023-10-20T12:24:45.781Z,62.03
2023-10-20T12:27:14.351Z,61.21
2023-10-20T12:29:41.660Z,61.35
2023-10-20T12:32:08.801Z,61.40
2023-10-20T12:34:35.850Z,61.00
2023-10-20T12:37:02.894Z,61.31
2023-10-20T12:39:29.805Z,61.20
2023-10-20T12:41:56.823Z,60.51
2023-10-20T12:44:23.748Z,60.41
2023-10-20T12:46:50.742Z,60.18
2023-10-20T12:49:17.738Z,60.81
2023-10-20T12:51:44.722Z,60.54
2023-10-20T12:54:11.534Z,61.05
2023-10-20T12:56:38.407Z,60.44
2023-10-20T12:59:05.322Z,60.01
2023-10-20T13:01:32.149Z,60.13
2023-10-20T13:03:59.041Z,59.74
2023-10-20T13:06:25.882Z,59.81
2023-10-20T13:08:52.877Z,59.60
2023-10-20T13:11:19.912Z,59.55
2023-10-20T13:13:46.776Z,58.94
2023-10-20T13:16:13.697Z,57.89
2023-10-20T13:18:40.723Z,58.07
2023-10-20T13:21:07.710Z,58.08
2023-10-20T13:23:34.908Z,57.65
2023-10-20T13:26:02.677Z,57.53
2023-10-20T13:28:29.516Z,57.34
2023-10-20T13:31:08.974Z,56.67
2023-10-20T13:33:36.383Z,56.74
2023-10-20T13:36:04.504Z,57.18
2023-10-20T13:38:33.029Z,57.13
2023-10-20T13:41:00.226Z,57.54
2023-10-20T13:43:27.205Z,57.68
2023-10-20T13:45:54.182Z,57.16
2023-10-20T13:48:21.145Z,57.36
2023-10-20T13:50:48.203Z,58.01
2023-10-20T13:53:15.716Z,57.59
2023-10-20T13:55:43.797Z,58.03
2023-10-20T13:58:10.811Z,57.68
2023-10-20T14:00:37.793Z,57.45
2023-10-20T14:03:05.406Z,57.44
2023-10-20T14:05:33.156Z,57.79
2023-10-20T14:08:01.071Z,57.52
2023-10-20T14:10:28.808Z,57.61
2023-10-20T14:12:57.245Z,57.49
2023-10-20T14:15:25.054Z,57.71
2023-10-20T14:17:52.013Z,57.75
2023-10-20T14:20:19.470Z,57.09
2023-10-20T14:22:46.381Z,56.97
2023-10-20T14:25:13.165Z,57.22
2023-10-20T14:27:40.652Z,57.27
2023-10-20T14:30:08.268Z,57.23
2023-10-20T14:32:35.451Z,57.21
2023-10-20T14:35:02.732Z,57.33
2023-10-20T14:37:30.914Z,57.44
2023-10-20T14:39:58.841Z,56.40
2023-10-20T14:42:25.704Z,56.05
2023-10-20T14:44:52.589Z,56.53
2023-10-20T14:47:19.544Z,55.95
2023-10-20T14:49:46.573Z,55.97
2023-10-20T14:52:13.795Z,55.72
2023-10-20T14:54:42.478Z,55.08
2023-10-20T14:57:09.434Z,54.80
2023-10-20T14:59:36.663Z,54.31
2023-10-20T15:02:06.904Z,54.45
2023-10-20T15:04:34.045Z,54.33
2023-10-20T15:07:01.293Z,54.78
2023-10-20T15:09:28.212Z,55.09
2023-10-20T15:11:55.347Z,54.95
2023-10-20T15:14:22.404Z,55.04
2023-10-20T15:16:49.457Z,55.22
2023-10-20T15:19:17.175Z,55.88
2023-10-20T15:21:44.527Z,56.05
2023-10-20T15:24:11.524Z,55.78
2023-10-20T15:26:38.437Z,56.05
2023-10-20T15:29:05.362Z,56.70
2023-10-20T15:31:32.499Z,56.65
2023-10-20T15:33:59.565Z,56.74
2023-10-20T15:36:26.987Z,57.10
2023-10-20T15:38:53.855Z,57.30
2023-10-20T15:41:20.851Z,56.96
2023-10-20T15:43:47.739Z,57.35
2023-10-20T15:46:14.666Z,57.19
2023-10-20T15:48:42.680Z,57.36
2023-10-20T15:51:10.001Z,57.13
2023-10-20T15:53:37.017Z,57.33
2023-10-20T15:56:04.102Z,57.49
2023-10-20T15:58:30.992Z,57.53
2023-10-20T16:00:59.232Z,57.42
2023-10-20T16:03:26.439Z,57.74
2023-10-20T16:05:53.638Z,57.62
2023-10-20T16:08:20.486Z,57.88
2023-10-20T16:10:47.394Z,57.96
2023-10-20T16:13:14.342Z,58.20
2023-10-20T16:15:41.204Z,58.60
2023-10-20T16:18:08.223Z,59.10
2023-10-20T16:20:35.548Z,58.73
2023-10-20T16:23:02.506Z,58.84
2023-10-20T16:25:29.496Z,59.00
2023-10-20T16:27:56.537Z,58.47
2023-10-20T16:30:23.537Z,58.55
2023-10-20T16:32:50.771Z,58.35
2023-10-20T16:35:17.910Z,58.69
2023-10-20T16:37:46.227Z,58.24
2023-10-20T16:40:13.785Z,58.14
2023-10-20T16:42:41.032Z,57.74
2023-10-20T16:45:08.646Z,57.70
2023-10-20T16:47:35.887Z,58.00
2023-10-20T16:50:03.208Z,57.80
2023-10-20T16:52:32.365Z,57.89
2023-10-20T16:54:59.506Z,57.83
2023-10-20T16:57:26.925Z,57.68
2023-10-20T16:59:54.300Z,57.85
2023-10-20T17:02:22.074Z,57.79
2023-10-20T17:04:49.237Z,57.70
2023-10-20T17:07:16.409Z,57.86
2023-10-20T17:09:43.464Z,57.62
2023-10-20T17:12:11.177Z,57.68
2023-10-20T17:14:38.364Z,57.90
2023-10-20T17:17:05.402Z,57.98
2023-10-20T17:19:32.578Z,58.10
2023-10-20T17:21:59.665Z,58.19
2023-10-20T17:24:26.938Z,58.49
2023-10-20T17:26:53.914Z,58.53
2023-10-20T17:29:22.601Z,58.55
2023-10-20T17:31:50.297Z,58.92
2023-10-20T17:34:17.930Z,58.70
2023-10-20T17:36:45.580Z,58.88
2023-10-20T17:39:12.662Z,58.82
2023-10-20T17:41:40.301Z,58.92
2023-10-20T17:44:07.701Z,58.80
2023-10-20T17:46:35.114Z,59.43
2023-10-20T17:49:02.583Z,59.39
2023-10-20T17:51:29.982Z,59.55
2023-10-20T17:53:58.133Z,59.38
2023-10-20T17:56:26.252Z,59.35
2023-10-20T17:58:53.442Z,59.67
2023-10-20T18:01:21.646Z,59.58
2023-10-20T18:03:49.386Z,59.70
2023-10-20T18:06:21.406Z,59.98
2023-10-20T18:08:51.559Z,60.19
2023-10-20T18:11:20.989Z,60.43
2023-10-20T18:13:50.279Z,60.61
2023-10-20T18:16:21.220Z,60.80
2023-10-20T18:18:50.624Z,60.86
2023-10-20T18:21:20.941Z,61.08
2023-10-20T18:23:49.236Z,61.20
2023-10-20T18:26:16.971Z,61.28
2023-10-20T18:28:44.610Z,61.38
2023-10-20T18:31:16.743Z,61.46
2023-10-20T18:33:48.139Z,61.45
2023-10-20T18:36:15.859Z,61.29
2023-10-20T18:38:43.745Z,61.25
2023-10-20T18:41:18.023Z,61.57
2023-10-20T18:43:46.024Z,61.64
2023-10-20T18:46:14.441Z,61.86
2023-10-20T18:48:42.729Z,62.21
2023-10-20T18:51:12.490Z,62.38
2023-10-20T18:53:42.531Z,62.52
2023-10-20T18:56:10.911Z,62.71
2023-10-20T18:58:39.171Z,62.72
2023-10-20T19:03:51.826Z,63.10
2023-10-20T19:06:22.568Z,63.10
2023-10-20T19:08:52.256Z,63.25
2023-10-20T19:11:20.797Z,63.11
2023-10-20T19:13:55.896Z,62.98
2023-10-20T19:16:24.158Z,62.80
2023-10-20T19:18:54.162Z,62.70
2023-10-20T19:21:23.086Z,62.48
2023-10-20T19:23:51.213Z,62.30
2023-10-20T19:26:19.505Z,62.46
2023-10-20T19:28:47.915Z,62.02
2023-10-20T19:31:15.386Z,62.19
2023-10-20T19:33:42.894Z,61.93
2023-10-20T19:36:11.094Z,61.98
2023-10-20T19:38:39.174Z,62.21
2023-10-20T19:41:07.605Z,62.19
2023-10-20T19:43:34.663Z,61.82
2023-10-20T19:46:02.741Z,62.05
2023-10-20T19:48:30.152Z,61.92
2023-10-20T19:50:58.561Z,62.27
2023-10-20T19:53:26.410Z,62.09
2023-10-20T19:55:53.637Z,62.20
2023-10-20T19:58:21.877Z,62.54
2023-10-20T20:00:49.740Z,62.52
2023-10-20T20:03:16.980Z,62.43
2023-10-20T20:05:44.283Z,62.56
2023-10-20T20:08:11.489Z,62.51
2023-10-20T20:10:38.494Z,62.89
2023-10-20T20:13:06.553Z,62.89
2023-10-20T20:15:33.641Z,63.18
2023-10-20T20:18:00.685Z,63.36
2023-10-20T20:20:27.866Z,63.34
2023-10-20T20:22:55.108Z,63.37
2023-10-20T20:25:22.270Z,63.50
2023-10-20T20:27:49.574Z,63.48
2023-10-20T20:30:16.917Z,63.92
2023-10-20T20:32:44.149Z,63.83
2023-10-20T20:35:11.146Z,63.96
2023-10-20T20:37:38.115Z,64.46
2023-10-20T20:40:06.617Z,64.19
2023-10-20T20:42:33.560Z,64.10
2023-10-20T20:45:00.541Z,64.24
2023-10-20T20:47:27.524Z,64.52
2023-10-20T20:49:54.473Z,64.82
2023-10-20T20:52:21.409Z,64.94
2023-10-20T20:54:48.321Z,65.59
2023-10-20T20:57:15.199Z,66.08
2023-10-20T20:59:42.252Z,66.12
2023-10-20T21:02:09.281Z,66.45
2023-10-20T21:04:36.296Z,66.47
2023-10-20T21:07:04.264Z,66.08
2023-10-20T21:09:32.713Z,66.47
2023-10-20T21:11:59.714Z,66.81
2023-10-20T21:14:26.786Z,67.04
2023-10-20T21:16:54.268Z,67.43
2023-10-20T21:19:21.214Z,67.35
2023-10-20T21:21:48.177Z,66.60
2023-10-20T21:24:14.996Z,66.85
2023-10-20T21:26:42.151Z,67.37
2023-10-20T21:29:09.056Z,67.44
2023-10-20T21:31:35.958Z,67.29
2023-10-20T21:34:02.896Z,67.63
2023-10-20T21:36:30.176Z,68.06
2023-10-20T21:38:57.162Z,67.97
2023-10-20T21:41:24.353Z,68.42
2023-10-20T21:43:51.262Z,68.72
2023-10-20T21:46:18.211Z,69.04
2023-10-20T21:48:45.310Z,69.77
2023-10-20T21:51:12.412Z,70.01
2023-10-20T21:53:40.165Z,70.58
2023-10-20T21:56:09.337Z,71.02
2023-10-20T21:58:37.118Z,71.50
2023-10-20T22:01:05.718Z,71.39
2023-10-20T22:03:32.978Z,71.33
2023-10-20T22:06:01.230Z,71.74
2023-10-20T22:08:28.173Z,71.97
2023-10-20T22:10:55.245Z,72.23
2023-10-20T22:13:22.267Z,72.60
2023-10-20T22:15:49.812Z,72.36
2023-10-20T22:18:16.905Z,72.18
2023-10-20T22:20:44.560Z,72.76
2023-10-20T22:23:12.054Z,72.85
2023-10-20T22:25:39.697Z,73.73
2023-10-20T22:28:07.134Z,73.94
2023-10-20T22:30:34.279Z,73.91
2023-10-20T22:33:01.416Z,73.66
2023-10-20T22:35:28.611Z,74.26
2023-10-20T22:37:55.642Z,74.48
2023-10-20T22:40:22.787Z,75.12
2023-10-20T22:42:49.930Z,74.86
2023-10-20T22:45:16.991Z,74.81
2023-10-20T22:47:44.074Z,74.82
2023-10-20T22:50:11.090Z,74.65
2023-10-20T22:52:38.062Z,74.91
2023-10-20T22:55:05.307Z,74.79
2023-10-20T22:57:32.331Z,74.90
2023-10-20T22:59:59.268Z,75.19
2023-10-20T23:02:26.250Z,75.33
2023-10-20T23:04:53.217Z,75.57
2023-10-20T23:07:20.387Z,75.57
2023-10-20T23:09:47.341Z,76.24
2023-10-20T23:12:14.279Z,76.72
2023-10-20T23:14:41.285Z,77.07
2023-10-20T23:17:08.357Z,77.33
2023-10-20T23:19:37.438Z,77.36
2023-10-20T23:22:04.761Z,77.59
2023-10-20T23:24:31.707Z,77.96
2023-10-20T23:26:58.643Z,78.41
2023-10-20T23:29:25.617Z,77.85
2023-10-20T23:31:52.625Z,76.77
2023-10-20T23:34:19.518Z,76.43
2023-10-20T23:36:46.380Z,76.75
2023-10-20T23:39:13.435Z,78.38
2023-10-20T23:41:40.446Z,78.88
2023-10-20T23:44:07.517Z,79.98
2023-10-20T23:46:34.401Z,81.09
2023-10-20T23:49:02.502Z,81.43
2023-10-20T23:51:29.562Z,82.45
2023-10-20T23:53:56.511Z,82.31
2023-10-20T23:56:23.645Z,80.16
2023-10-20T23:58:50.524Z,80.95
